createdAt,value
2019-03-10T00:02:10.548Z,79.50
2019-03-10T00:04:40.656Z,79.20
2019-03-10T00:07:10.674Z,79.10
2019-03-10T00:09:40.604Z,79.30
2019-03-10T00:12:10.528Z,79.20
2019-03-10T00:14:40.420Z,79.20
2019-03-10T00:17:10.397Z,79.10
2019-03-10T00:19:40.235Z,79.10
2019-03-10T00:22:10.106Z,79.20
2019-03-10T00:24:40.017Z,79.20
2019-03-10T00:27:09.951Z,78.60
2019-03-10T00:29:39.809Z,78.20
2019-03-10T00:32:09.797Z,78.50
2019-03-10T00:34:39.747Z,78.30
2019-03-10T00:37:09.591Z,78.30
2019-03-10T00:39:48.131Z,78.10
2019-03-10T00:42:43.862Z,78.10
2019-03-10T00:45:50.230Z,78.00
2019-03-10T00:48:40.943Z,78.00
2019-03-10T00:51:31.579Z,77.50
2019-03-10T00:54:01.434Z,77.40
2019-03-10T00:56:31.382Z,77.30
2019-03-10T00:59:01.317Z,77.40
2019-03-10T01:01:31.247Z,77.30
2019-03-10T01:04:01.147Z,77.20
2019-03-10T01:06:31.158Z,76.70
2019-03-10T01:09:01.100Z,76.70
2019-03-10T01:11:32.620Z,76.70
2019-03-10T01:14:02.489Z,76.70
2019-03-10T01:16:33.157Z,76.70
2019-03-10T01:19:04.109Z,76.40
2019-03-10T01:21:35.080Z,76.20
2019-03-10T01:24:05.011Z,76.40
2019-03-10T01:26:35.032Z,76.10
2019-03-10T01:29:06.006Z,76.40
2019-03-10T01:31:48.108Z,75.80
2019-03-10T01:34:37.421Z,75.70
2019-03-10T01:37:07.279Z,75.90
2019-03-10T01:39:37.135Z,75.80
2019-03-10T01:42:07.051Z,75.70
2019-03-10T01:44:36.983Z,75.70
2019-03-10T01:47:06.919Z,75.20
2019-03-10T01:49:36.856Z,75.10
2019-03-10T01:52:06.716Z,75.30
2019-03-10T01:54:36.654Z,75.30
2019-03-10T01:57:06.520Z,75.20
2019-03-10T01:59:36.397Z,75.40
2019-03-10T02:02:06.392Z,75.30
2019-03-10T02:04:36.267Z,75.20
2019-03-10T02:07:06.368Z,75.40
2019-03-10T02:09:36.287Z,75.70
2019-03-10T02:12:06.208Z,75.80
2019-03-10T02:14:37.143Z,75.70
2019-03-10T02:17:07.158Z,75.80
2019-03-10T02:19:37.075Z,75.60
2019-03-10T02:22:06.949Z,75.60
2019-03-10T02:24:36.893Z,75.30
2019-03-10T02:27:06.891Z,75.20
2019-03-10T02:29:36.834Z,75.50
2019-03-10T02:32:06.698Z,74.90
2019-03-10T02:34:36.648Z,74.80
2019-03-10T02:37:06.645Z,74.70
2019-03-10T02:39:36.576Z,74.60
2019-03-10T02:42:06.511Z,74.60
2019-03-10T02:44:36.374Z,75.80
2019-03-10T02:47:06.249Z,75.10
2019-03-10T02:49:36.181Z,75.10
2019-03-10T02:52:06.088Z,75.10
2019-03-10T02:54:35.948Z,74.90
2019-03-10T02:57:05.877Z,75.10
2019-03-10T02:59:35.816Z,75.20
2019-03-10T03:02:05.915Z,75.50
2019-03-10T03:04:35.835Z,75.70
2019-03-10T03:07:05.758Z,76.10
2019-03-10T03:09:35.659Z,76.30
2019-03-10T03:12:05.509Z,76.50
2019-03-10T03:14:35.569Z,76.70
2019-03-10T03:17:06.855Z,76.70
2019-03-10T03:19:36.778Z,76.50
2019-03-10T03:22:06.689Z,77.00
2019-03-10T03:24:36.627Z,76.80
2019-03-10T03:27:06.563Z,77.00
2019-03-10T03:29:36.418Z,77.30
2019-03-10T03:32:06.359Z,77.40
2019-03-10T03:34:36.285Z,77.40
2019-03-10T03:37:06.424Z,77.40
2019-03-10T03:39:36.418Z,77.50
2019-03-10T03:42:25.592Z,77.50
2019-03-10T03:44:55.592Z,77.40
2019-03-10T03:47:25.449Z,77.60
2019-03-10T03:49:55.407Z,77.70
2019-03-10T03:52:25.343Z,77.70
2019-03-10T03:54:55.218Z,77.90
2019-03-10T03:57:25.167Z,77.90
2019-03-10T03:59:55.089Z,78.20
2019-03-10T04:02:26.675Z,78.00
2019-03-10T04:04:56.581Z,78.10
2019-03-10T04:07:26.449Z,78.20
2019-03-10T04:09:56.299Z,78.50
2019-03-10T04:12:26.239Z,78.60
2019-03-10T04:14:56.270Z,78.60
2019-03-10T04:17:26.195Z,78.80
2019-03-10T04:19:56.069Z,78.90
2019-03-10T04:22:25.997Z,78.80
2019-03-10T04:24:55.943Z,78.90
2019-03-10T04:27:25.851Z,79.10
2019-03-10T04:29:55.788Z,80.40
2019-03-10T04:32:25.726Z,80.10
2019-03-10T04:34:55.647Z,79.40
2019-03-10T04:37:25.624Z,79.40
2019-03-10T04:39:55.620Z,79.30
2019-03-10T04:42:25.627Z,79.60
2019-03-10T04:44:55.597Z,79.20
2019-03-10T04:47:25.450Z,79.20
2019-03-10T04:49:56.252Z,79.10
2019-03-10T04:52:26.168Z,79.20
2019-03-10T04:55:14.178Z,79.30
2019-03-10T04:57:57.984Z,79.00
2019-03-10T05:00:28.671Z,78.90
2019-03-10T05:02:58.530Z,78.90
2019-03-10T05:05:28.561Z,79.20
2019-03-10T05:07:58.520Z,79.10
2019-03-10T05:10:28.504Z,79.20
2019-03-10T05:12:58.459Z,79.20
2019-03-10T05:15:28.360Z,79.20
2019-03-10T05:17:58.484Z,78.60
2019-03-10T05:20:28.328Z,78.60
2019-03-10T05:23:30.344Z,78.80
2019-03-10T05:26:00.633Z,79.10
2019-03-10T05:28:33.180Z,79.70
2019-03-10T05:31:03.244Z,79.70
2019-03-10T05:33:33.235Z,79.80
2019-03-10T05:36:03.258Z,80.20
2019-03-10T05:38:33.184Z,80.60
2019-03-10T05:41:03.060Z,80.80
2019-03-10T05:43:33.044Z,81.70
2019-03-10T05:46:02.993Z,82.20
2019-03-10T05:48:32.963Z,82.90
2019-03-10T05:51:02.801Z,83.40
2019-03-10T05:53:32.729Z,83.80
2019-03-10T05:56:02.707Z,84.40
2019-03-10T05:58:32.556Z,84.80
2019-03-10T06:01:03.597Z,85.10
2019-03-10T06:03:33.552Z,86.00
2019-03-10T06:06:03.482Z,86.10
2019-03-10T06:08:33.323Z,87.10
2019-03-10T06:11:03.217Z,87.50
2019-03-10T06:13:34.148Z,87.80
2019-03-10T06:16:04.074Z,87.80
2019-03-10T06:18:33.928Z,88.10
2019-03-10T06:21:03.891Z,88.00
2019-03-10T06:23:34.819Z,88.10
2019-03-10T06:26:04.829Z,88.00
2019-03-10T06:28:34.747Z,88.10
2019-03-10T06:31:04.903Z,87.60
2019-03-10T06:33:34.760Z,87.60
2019-03-10T06:36:04.842Z,87.70
2019-03-10T06:38:34.676Z,87.60
2019-03-10T06:41:04.524Z,87.40
2019-03-10T06:43:34.619Z,87.10
2019-03-10T06:46:04.902Z,87.30
2019-03-10T06:48:34.998Z,87.40
2019-03-10T06:51:04.986Z,87.60
2019-03-10T06:53:37.460Z,87.80
2019-03-10T06:56:19.471Z,88.20
2019-03-10T06:58:51.571Z,88.30
2019-03-10T07:01:21.744Z,88.70
2019-03-10T07:03:53.863Z,88.20
2019-03-10T07:06:25.447Z,88.40
2019-03-10T07:08:56.902Z,88.50
2019-03-10T07:11:29.179Z,88.70
2019-03-10T07:13:59.428Z,88.50
2019-03-10T07:16:29.787Z,88.60
2019-03-10T07:18:59.672Z,89.00
2019-03-10T07:21:29.612Z,88.70
2019-03-10T07:24:01.174Z,88.70
2019-03-10T07:26:31.510Z,88.80
2019-03-10T07:29:03.260Z,89.10
2019-03-10T07:31:52.011Z,89.00
2019-03-10T07:34:23.621Z,88.50
2019-03-10T07:37:11.433Z,88.70
2019-03-10T07:39:43.134Z,89.20
2019-03-10T07:42:14.752Z,89.10
2019-03-10T07:45:03.018Z,89.30
2019-03-10T07:47:34.519Z,89.30
2019-03-10T07:50:08.043Z,89.10
2019-03-10T07:52:48.631Z,89.10
2019-03-10T07:55:33.512Z,89.60
2019-03-10T07:58:08.158Z,89.50
2019-03-10T08:00:45.694Z,89.70
2019-03-10T08:03:26.908Z,90.00
2019-03-10T08:06:04.309Z,90.10
2019-03-10T08:08:35.813Z,90.20
2019-03-10T08:11:16.179Z,90.00
2019-03-10T08:14:04.067Z,90.10
2019-03-10T08:16:44.751Z,90.10
2019-03-10T08:19:16.276Z,90.00
2019-03-10T08:21:50.507Z,89.80
2019-03-10T08:24:33.887Z,89.70
2019-03-10T08:27:08.497Z,90.00
2019-03-10T08:29:40.061Z,90.00
2019-03-10T08:32:14.545Z,90.10
2019-03-10T08:34:58.149Z,90.10
2019-03-10T08:37:51.873Z,90.20
2019-03-10T08:40:32.696Z,90.20
2019-03-10T08:43:04.450Z,90.10
2019-03-10T08:45:36.007Z,90.10
2019-03-10T08:48:07.627Z,89.90
2019-03-10T08:50:48.168Z,90.70
2019-03-10T08:53:19.737Z,90.50
2019-03-10T08:56:06.616Z,90.70
2019-03-10T08:58:54.636Z,90.80
2019-03-10T09:01:38.168Z,90.90
2019-03-10T09:04:09.753Z,90.90
2019-03-10T09:06:47.250Z,90.70
2019-03-10T09:09:25.747Z,90.60
2019-03-10T09:12:12.342Z,90.60
2019-03-10T09:14:49.471Z,90.70
2019-03-10T09:17:24.190Z,90.90
2019-03-10T09:20:04.289Z,91.00
2019-03-10T09:22:53.896Z,91.40
2019-03-10T09:25:40.450Z,91.10
2019-03-10T09:28:14.767Z,91.10
2019-03-10T09:30:49.412Z,90.70
2019-03-10T09:33:26.592Z,90.50
2019-03-10T09:36:16.366Z,90.60
2019-03-10T09:38:53.647Z,90.60
2019-03-10T09:41:37.260Z,90.40
2019-03-10T09:44:14.526Z,90.40
2019-03-10T09:46:48.761Z,90.30
2019-03-10T09:49:26.228Z,90.30
2019-03-10T09:52:06.160Z,90.20
2019-03-10T09:54:40.629Z,90.00
2019-03-10T09:57:14.843Z,90.10
2019-03-10T09:59:49.351Z,90.10
2019-03-10T10:02:35.857Z,90.20
2019-03-10T10:05:15.596Z,90.10
2019-03-10T10:07:49.823Z,90.10
2019-03-10T10:10:21.399Z,90.10
2019-03-10T10:13:09.189Z,90.10
2019-03-10T10:15:59.058Z,90.00
2019-03-10T10:18:39.365Z,89.80
2019-03-10T10:21:13.597Z,89.10
2019-03-10T10:24:01.508Z,88.20
2019-03-10T10:26:39.066Z,87.70
2019-03-10T10:29:16.414Z,87.20
2019-03-10T10:32:05.245Z,86.90
2019-03-10T10:34:39.532Z,87.20
2019-03-10T10:37:11.047Z,87.10
2019-03-10T10:39:45.540Z,86.50
2019-03-10T10:42:26.164Z,85.80
2019-03-10T10:45:03.700Z,85.80
2019-03-10T10:47:51.410Z,85.70
2019-03-10T10:50:32.331Z,85.40
2019-03-10T10:53:15.558Z,84.90
2019-03-10T10:55:59.193Z,84.40
2019-03-10T10:58:33.916Z,84.50
2019-03-10T11:01:11.706Z,84.40
2019-03-10T11:03:49.289Z,84.80
2019-03-10T11:06:23.596Z,84.80
2019-03-10T11:08:58.005Z,84.10
2019-03-10T11:11:35.524Z,82.70
2019-03-10T11:14:12.838Z,81.70
2019-03-10T11:16:47.496Z,80.20
2019-03-10T11:19:31.398Z,79.90
2019-03-10T11:22:19.204Z,77.90
2019-03-10T11:24:50.716Z,77.80
2019-03-10T11:27:38.579Z,78.90
2019-03-10T11:30:15.611Z,76.40
2019-03-10T11:32:56.203Z,72.20
2019-03-10T11:35:30.825Z,70.30
2019-03-10T11:38:02.375Z,72.10
2019-03-10T11:40:49.887Z,73.60
2019-03-10T11:43:22.802Z,72.20
2019-03-10T11:46:06.596Z,68.60
2019-03-10T11:48:38.081Z,67.70
2019-03-10T11:51:18.691Z,66.70
2019-03-10T11:53:59.005Z,64.80
2019-03-10T11:56:42.005Z,64.90
2019-03-10T11:59:18.855Z,65.30
2019-03-10T12:01:53.200Z,64.40
2019-03-10T12:04:44.419Z,62.80
2019-03-10T12:07:15.941Z,62.30
2019-03-10T12:09:45.853Z,59.50
2019-03-10T12:12:15.725Z,57.70
2019-03-10T12:14:45.639Z,57.30
2019-03-10T12:17:15.484Z,58.40
2019-03-10T12:19:45.378Z,58.70
2019-03-10T12:22:15.296Z,60.10
2019-03-10T12:24:45.240Z,61.50
2019-03-10T12:27:15.083Z,64.20
2019-03-10T12:29:44.962Z,65.70
2019-03-10T12:32:14.905Z,67.30
2019-03-10T12:34:44.752Z,69.50
2019-03-10T12:37:14.698Z,68.50
2019-03-10T12:39:44.617Z,67.20
2019-03-10T12:42:14.545Z,67.80
2019-03-10T12:44:44.430Z,69.70
2019-03-10T12:47:14.336Z,71.10
2019-03-10T12:49:44.293Z,71.80
2019-03-10T12:52:14.188Z,70.10
2019-03-10T12:54:44.101Z,70.30
2019-03-10T12:57:14.016Z,70.20
2019-03-10T12:59:43.886Z,70.20
2019-03-10T13:02:13.808Z,68.70
2019-03-10T13:04:43.681Z,63.70
2019-03-10T13:07:13.702Z,59.70
2019-03-10T13:09:43.612Z,55.70
2019-03-10T13:12:13.461Z,53.30
2019-03-10T13:14:43.354Z,52.80
2019-03-10T13:17:13.270Z,54.70
2019-03-10T13:19:43.192Z,56.20
2019-03-10T13:22:13.254Z,58.00
2019-03-10T13:24:43.154Z,59.40
2019-03-10T13:27:13.025Z,62.20
2019-03-10T13:29:43.841Z,64.80
2019-03-10T13:32:13.814Z,66.50
2019-03-10T13:34:43.708Z,66.30
2019-03-10T13:37:13.575Z,66.40
2019-03-10T13:39:43.582Z,66.30
2019-03-10T13:42:13.504Z,66.30
2019-03-10T13:44:43.368Z,65.30
2019-03-10T13:47:13.356Z,64.10
2019-03-10T13:49:43.298Z,64.00
2019-03-10T13:52:13.139Z,64.20
2019-03-10T13:54:43.004Z,64.80
2019-03-10T13:57:12.931Z,66.20
2019-03-10T13:59:42.879Z,67.60
2019-03-10T14:02:12.804Z,69.10
2019-03-10T14:04:42.744Z,70.60
2019-03-10T14:07:13.732Z,72.30
2019-03-10T14:09:43.603Z,71.60
2019-03-10T14:12:13.463Z,71.90
2019-03-10T14:14:43.393Z,71.90
2019-03-10T14:17:13.256Z,72.70
2019-03-10T14:19:43.129Z,73.20
2019-03-10T14:22:13.033Z,73.60
2019-03-10T14:24:42.990Z,72.30
2019-03-10T14:27:13.111Z,71.50
2019-03-10T14:29:43.037Z,70.40
2019-03-10T14:32:13.030Z,70.50
2019-03-10T14:34:43.495Z,68.80
2019-03-10T14:37:13.772Z,68.40
2019-03-10T14:39:43.693Z,67.80
2019-03-10T14:42:13.628Z,67.10
2019-03-10T14:44:43.615Z,65.80
2019-03-10T14:47:13.541Z,64.90
2019-03-10T14:49:43.438Z,64.20
2019-03-10T14:52:13.380Z,64.20
2019-03-10T14:54:43.389Z,64.30
2019-03-10T14:57:13.246Z,63.30
2019-03-10T14:59:43.175Z,62.80
2019-03-10T15:02:13.113Z,61.90
2019-03-10T15:04:43.053Z,61.30
2019-03-10T15:07:12.993Z,60.80
2019-03-10T15:09:42.898Z,59.90
2019-03-10T15:12:12.904Z,59.50
2019-03-10T15:14:42.760Z,58.90
2019-03-10T15:17:12.694Z,57.50
2019-03-10T15:19:42.534Z,56.10
2019-03-10T15:22:12.397Z,55.80
2019-03-10T15:24:42.255Z,55.60
2019-03-10T15:27:22.812Z,55.90
2019-03-10T15:29:43.716Z,56.00
2019-03-10T15:32:13.571Z,55.90
2019-03-10T15:34:43.430Z,55.90
2019-03-10T15:37:13.369Z,56.10
2019-03-10T15:39:43.284Z,56.20
2019-03-10T15:42:13.160Z,56.50
2019-03-10T15:44:43.067Z,56.30
2019-03-10T15:47:12.940Z,56.70
2019-03-10T15:49:42.895Z,57.10
2019-03-10T15:52:12.815Z,57.60
2019-03-10T15:54:42.791Z,57.50
2019-03-10T15:57:12.652Z,57.80
2019-03-10T15:59:42.529Z,57.90
2019-03-10T16:02:12.587Z,56.90
2019-03-10T16:04:42.539Z,56.30
2019-03-10T16:07:12.457Z,56.50
2019-03-10T16:09:42.337Z,56.70
2019-03-10T16:12:12.192Z,56.40
2019-03-10T16:14:42.187Z,56.50
2019-03-10T16:17:12.059Z,56.90
2019-03-10T16:19:42.011Z,56.60
2019-03-10T16:22:11.979Z,56.60
2019-03-10T16:24:41.845Z,56.00
2019-03-10T16:27:12.770Z,54.90
2019-03-10T16:29:42.703Z,55.30
2019-03-10T16:32:12.577Z,55.30
2019-03-10T16:34:42.420Z,55.30
2019-03-10T16:37:12.389Z,55.50
2019-03-10T16:39:42.259Z,55.20
2019-03-10T16:42:13.810Z,53.40
2019-03-10T16:44:44.857Z,52.80
2019-03-10T16:47:15.202Z,52.60
2019-03-10T16:49:45.063Z,50.80
2019-03-10T16:52:14.935Z,50.40
2019-03-10T16:54:44.852Z,49.50
2019-03-10T16:57:14.786Z,47.90
2019-03-10T16:59:44.659Z,47.80
2019-03-10T17:02:14.685Z,47.30
2019-03-10T17:04:44.620Z,46.80
2019-03-10T17:07:14.546Z,47.00
2019-03-10T17:09:45.832Z,47.80
2019-03-10T17:12:15.962Z,46.90
2019-03-10T17:14:46.514Z,46.20
2019-03-10T17:17:16.676Z,46.80
2019-03-10T17:19:46.547Z,46.50
2019-03-10T17:22:16.405Z,46.80
2019-03-10T17:24:46.347Z,47.50
2019-03-10T17:27:16.191Z,47.60
2019-03-10T17:29:46.043Z,47.80
2019-03-10T17:32:15.926Z,48.30
2019-03-10T17:34:45.840Z,48.40
2019-03-10T17:37:16.696Z,49.10
2019-03-10T17:39:47.076Z,48.40
2019-03-10T17:42:17.376Z,48.50
2019-03-10T17:44:47.316Z,48.80
2019-03-10T17:47:17.209Z,49.10
2019-03-10T17:49:47.122Z,49.10
2019-03-10T17:52:17.045Z,49.10
2019-03-10T17:54:47.151Z,49.30
2019-03-10T17:57:17.263Z,48.40
2019-03-10T17:59:47.222Z,48.40
2019-03-10T18:02:17.123Z,48.60
2019-03-10T18:04:47.067Z,47.60
2019-03-10T18:07:18.155Z,47.30
2019-03-10T18:09:50.280Z,47.30
2019-03-10T18:12:20.398Z,46.80
2019-03-10T18:14:51.516Z,45.70
2019-03-10T18:17:22.861Z,46.20
2019-03-10T18:19:53.896Z,46.20
2019-03-10T18:22:25.531Z,46.50
2019-03-10T18:24:57.130Z,46.70
2019-03-10T18:27:28.772Z,46.90
2019-03-10T18:30:00.382Z,46.60
2019-03-10T18:32:32.373Z,46.90
2019-03-10T18:35:06.071Z,47.00
2019-03-10T18:37:36.091Z,47.40
2019-03-10T18:40:11.885Z,47.60
2019-03-10T18:42:41.729Z,47.90
2019-03-10T18:45:14.337Z,48.70
2019-03-10T18:47:44.320Z,48.40
2019-03-10T18:50:22.526Z,49.40
2019-03-10T18:52:52.554Z,49.00
2019-03-10T18:55:23.592Z,49.40
2019-03-10T18:57:53.526Z,49.70
2019-03-10T19:00:27.687Z,50.50
2019-03-10T19:02:57.729Z,50.20
2019-03-10T19:05:27.678Z,50.60
2019-03-10T19:07:57.787Z,50.70
2019-03-10T19:10:27.726Z,50.60
2019-03-10T19:12:57.594Z,50.80
2019-03-10T19:15:28.361Z,52.30
2019-03-10T19:17:58.387Z,57.10
2019-03-10T19:20:28.320Z,59.40
2019-03-10T19:22:58.180Z,59.00
2019-03-10T19:25:28.125Z,60.40
2019-03-10T19:27:59.867Z,57.70
2019-03-10T19:30:30.000Z,60.40
2019-03-10T19:32:59.853Z,63.80
2019-03-10T19:35:29.773Z,63.60
2019-03-10T19:37:59.782Z,60.70
2019-03-10T19:40:29.630Z,62.20
2019-03-10T19:42:59.615Z,60.50
2019-03-10T19:45:31.116Z,60.50
2019-03-10T19:48:03.038Z,59.10
2019-03-10T19:50:33.813Z,59.00
2019-03-10T19:53:03.751Z,57.90
2019-03-10T19:55:35.225Z,57.30
2019-03-10T19:58:06.612Z,58.00
2019-03-10T20:00:37.725Z,57.20
2019-03-10T20:03:09.701Z,56.70
2019-03-10T20:05:41.402Z,56.50
2019-03-10T20:08:12.114Z,56.50
2019-03-10T20:10:44.168Z,56.40
2019-03-10T20:13:14.272Z,56.50
2019-03-10T20:15:45.596Z,56.30
2019-03-10T20:18:17.399Z,56.30
2019-03-10T20:20:48.780Z,56.40
2019-03-10T20:23:19.310Z,56.10
2019-03-10T20:25:50.060Z,56.10
2019-03-10T20:28:21.287Z,56.10
2019-03-10T20:30:52.634Z,58.80
2019-03-10T20:33:25.402Z,64.70
2019-03-10T20:35:56.550Z,67.10
2019-03-10T20:38:27.193Z,68.70
2019-03-10T20:40:58.547Z,70.00
2019-03-10T20:43:30.605Z,71.00
2019-03-10T20:46:01.442Z,71.40
2019-03-10T20:48:34.225Z,70.30
2019-03-10T20:51:05.417Z,70.80
2019-03-10T20:53:37.940Z,71.00
2019-03-10T20:56:08.062Z,70.60
2019-03-10T20:58:38.932Z,71.00
2019-03-10T21:01:12.476Z,71.40
2019-03-10T21:03:42.837Z,70.90
2019-03-10T21:06:13.822Z,71.30
2019-03-10T21:08:44.761Z,70.00
2019-03-10T21:11:15.013Z,70.50
2019-03-10T21:13:45.397Z,70.30
2019-03-10T21:16:18.400Z,70.50
2019-03-10T21:18:49.586Z,70.20
2019-03-10T21:21:21.336Z,70.30
2019-03-10T21:23:55.299Z,69.80
2019-03-10T21:26:25.209Z,69.70
2019-03-10T21:28:55.124Z,69.10
2019-03-10T21:31:24.970Z,75.40
2019-03-10T21:33:54.816Z,74.20
2019-03-10T21:36:24.675Z,73.60
2019-03-10T21:38:54.613Z,73.30
2019-03-10T21:41:24.526Z,67.80
2019-03-10T21:43:54.529Z,67.60
2019-03-10T21:46:24.615Z,68.30
2019-03-10T21:48:54.656Z,68.80
2019-03-10T21:51:24.565Z,69.40
2019-03-10T21:53:54.418Z,70.00
2019-03-10T21:56:25.416Z,70.20
2019-03-10T21:58:55.266Z,70.50
2019-03-10T22:01:25.198Z,70.80
2019-03-10T22:03:55.065Z,70.90
2019-03-10T22:06:25.001Z,71.20
2019-03-10T22:08:54.916Z,71.10
2019-03-10T22:11:24.849Z,72.20
2019-03-10T22:13:55.868Z,71.50
2019-03-10T22:16:25.793Z,71.90
2019-03-10T22:18:55.648Z,72.30
2019-03-10T22:21:25.614Z,72.30
2019-03-10T22:23:59.529Z,72.20
2019-03-10T22:26:27.052Z,71.40
2019-03-10T22:28:56.930Z,70.50
2019-03-10T22:31:26.912Z,70.10
2019-03-10T22:33:56.787Z,68.90
2019-03-10T22:36:26.635Z,68.00
2019-03-10T22:38:58.008Z,66.80
2019-03-10T22:41:27.910Z,66.10
2019-03-10T22:43:57.772Z,65.70
2019-03-10T22:46:27.626Z,65.70
2019-03-10T22:48:57.553Z,66.80
2019-03-10T22:51:27.562Z,66.20
2019-03-10T22:53:57.473Z,67.10
2019-03-10T22:56:27.420Z,67.40
2019-03-10T22:58:57.325Z,67.60
2019-03-10T23:01:27.192Z,68.80
2019-03-10T23:03:57.162Z,69.20
2019-03-10T23:06:27.072Z,69.20
2019-03-10T23:08:57.014Z,69.30
2019-03-10T23:11:27.028Z,69.50
2019-03-10T23:13:56.900Z,69.80
2019-03-10T23:16:26.883Z,69.60
2019-03-10T23:18:56.718Z,69.20
2019-03-10T23:21:26.676Z,68.60
2019-03-10T23:23:56.565Z,68.60
2019-03-10T23:26:26.489Z,68.90
2019-03-10T23:28:56.492Z,69.10
2019-03-10T23:31:26.415Z,69.10
2019-03-10T23:33:56.259Z,68.70
2019-03-10T23:36:26.113Z,69.50
2019-03-10T23:38:55.973Z,69.70
2019-03-10T23:41:25.910Z,70.50
2019-03-10T23:43:55.751Z,70.60
2019-03-10T23:46:25.674Z,71.10
2019-03-10T23:48:55.525Z,71.60
2019-03-10T23:51:25.389Z,72.10
2019-03-10T23:53:55.232Z,72.70
2019-03-10T23:56:25.175Z,72.80
2019-03-10T23:58:55.087Z,73.20
